sensor_id;sensor_type;location;lat;lon;timestamp;pressure;altitude;pressure_sealevel;temperature;humidity
7335;BME280;3708;42.632;23.378;2023-04-23T00:02:14;94274.97;;;12.25;53.56
7335;BME280;3708;42.632;23.378;2023-04-23T00:04:48;94263.59;;;12.45;53.36
7335;BME280;3708;42.632;23.378;2023-04-23T00:07:18;94258.47;;;12.61;52.80
7335;BME280;3708;42.632;23.378;2023-04-23T00:09:45;94254.94;;;12.69;52.31
7335;BME280;3708;42.632;23.378;2023-04-23T00:12:13;94255.38;;;12.71;52.40
7335;BME280;3708;42.632;23.378;2023-04-23T00:14:40;94257.88;;;12.79;52.39
7335;BME280;3708;42.632;23.378;2023-04-23T00:17:08;94263.44;;;12.90;52.03
7335;BME280;3708;42.632;23.378;2023-04-23T00:19:35;94257.44;;;12.89;52.20
7335;BME280;3708;42.632;23.378;2023-04-23T00:22:02;94257.09;;;12.91;51.87
7335;BME280;3708;42.632;23.378;2023-04-23T00:24:29;94262.78;;;12.93;52.17
7335;BME280;3708;42.632;23.378;2023-04-23T00:26:56;94258.38;;;13.09;51.63
7335;BME280;3708;42.632;23.378;2023-04-23T00:29:23;94263.09;;;13.03;51.45
7335;BME280;3708;42.632;23.378;2023-04-23T00:31:50;94264.19;;;13.15;51.15
7335;BME280;3708;42.632;23.378;2023-04-23T00:37:51;94256.09;;;13.35;50.55
7335;BME280;3708;42.632;23.378;2023-04-23T00:40:18;94260.22;;;13.21;49.45
7335;BME280;3708;42.632;23.378;2023-04-23T00:42:45;94254.88;;;13.17;49.71
7335;BME280;3708;42.632;23.378;2023-04-23T00:45:13;94257.19;;;13.07;49.85
7335;BME280;3708;42.632;23.378;2023-04-23T00:47:40;94258.06;;;12.98;50.07
7335;BME280;3708;42.632;23.378;2023-04-23T00:50:08;94259.16;;;12.85;50.24
7335;BME280;3708;42.632;23.378;2023-04-23T00:52:35;94251.72;;;12.87;50.44
7335;BME280;3708;42.632;23.378;2023-04-23T00:55:04;94260.06;;;12.89;50.26
7335;BME280;3708;42.632;23.378;2023-04-23T00:57:31;94257.50;;;13.05;49.77
7335;BME280;3708;42.632;23.378;2023-04-23T00:59:58;94260.56;;;13.07;49.39
7335;BME280;3708;42.632;23.378;2023-04-23T01:02:26;94253.03;;;12.93;48.53
7335;BME280;3708;42.632;23.378;2023-04-23T01:04:55;94252.91;;;12.90;48.64
7335;BME280;3708;42.632;23.378;2023-04-23T01:07:25;94259.59;;;12.87;48.20
7335;BME280;3708;42.632;23.378;2023-04-23T01:09:53;94247.63;;;12.50;49.69
7335;BME280;3708;42.632;23.378;2023-04-23T01:12:19;94254.09;;;12.53;49.86
7335;BME280;3708;42.632;23.378;2023-04-23T01:14:46;94247.19;;;12.48;49.96
7335;BME280;3708;42.632;23.378;2023-04-23T01:17:13;94250.69;;;12.40;50.11
7335;BME280;3708;42.632;23.378;2023-04-23T01:19:40;94255.06;;;12.48;49.90
7335;BME280;3708;42.632;23.378;2023-04-23T01:22:10;94253.63;;;12.63;49.95
7335;BME280;3708;42.632;23.378;2023-04-23T01:24:37;94252.31;;;12.81;49.75
7335;BME280;3708;42.632;23.378;2023-04-23T01:27:05;94252.50;;;12.88;49.84
7335;BME280;3708;42.632;23.378;2023-04-23T01:29:33;94255.66;;;12.93;49.17
7335;BME280;3708;42.632;23.378;2023-04-23T01:32:00;94257.41;;;13.01;49.02
7335;BME280;3708;42.632;23.378;2023-04-23T01:34:28;94256.53;;;12.97;49.18
7335;BME280;3708;42.632;23.378;2023-04-23T01:36:56;94257.66;;;12.84;49.62
7335;BME280;3708;42.632;23.378;2023-04-23T01:39:25;94261.81;;;12.85;49.46
7335;BME280;3708;42.632;23.378;2023-04-23T01:41:52;94263.25;;;12.71;50.35
7335;BME280;3708;42.632;23.378;2023-04-23T01:44:19;94258.88;;;12.63;50.76
7335;BME280;3708;42.632;23.378;2023-04-23T01:46:46;94259.88;;;12.58;50.93
7335;BME280;3708;42.632;23.378;2023-04-23T01:49:13;94262.72;;;12.65;50.70
7335;BME280;3708;42.632;23.378;2023-04-23T01:51:41;94271.25;;;12.62;51.24
7335;BME280;3708;42.632;23.378;2023-04-23T01:54:08;94267.66;;;12.55;51.04
7335;BME280;3708;42.632;23.378;2023-04-23T01:56:36;94266.13;;;12.54;51.07
7335;BME280;3708;42.632;23.378;2023-04-23T01:59:03;94268.94;;;12.12;51.67
7335;BME280;3708;42.632;23.378;2023-04-23T02:01:40;94269.63;;;12.09;52.12
7335;BME280;3708;42.632;23.378;2023-04-23T02:04:08;94269.69;;;11.89;53.12
7335;BME280;3708;42.632;23.378;2023-04-23T02:06:35;94274.72;;;11.94;53.23
7335;BME280;3708;42.632;23.378;2023-04-23T02:09:02;94271.75;;;11.83;53.07
7335;BME280;3708;42.632;23.378;2023-04-23T02:11:30;94270.75;;;11.76;53.24
7335;BME280;3708;42.632;23.378;2023-04-23T02:13:58;94270.09;;;11.79;53.58
7335;BME280;3708;42.632;23.378;2023-04-23T02:16:25;94271.41;;;11.73;53.89
7335;BME280;3708;42.632;23.378;2023-04-23T02:18:52;94270.97;;;11.71;53.67
7335;BME280;3708;42.632;23.378;2023-04-23T02:21:20;94271.94;;;11.45;54.25
7335;BME280;3708;42.632;23.378;2023-04-23T02:23:47;94268.63;;;11.36;54.58
7335;BME280;3708;42.632;23.378;2023-04-23T02:26:14;94273.47;;;11.46;54.82
7335;BME280;3708;42.632;23.378;2023-04-23T02:28:41;94278.84;;;11.50;54.73
7335;BME280;3708;42.632;23.378;2023-04-23T02:31:09;94273.59;;;11.50;54.96
7335;BME280;3708;42.632;23.378;2023-04-23T02:33:36;94274.22;;;11.68;55.17
7335;BME280;3708;42.632;23.378;2023-04-23T02:36:03;94264.63;;;11.72;55.01
7335;BME280;3708;42.632;23.378;2023-04-23T02:38:30;94258.06;;;11.78;54.48
7335;BME280;3708;42.632;23.378;2023-04-23T02:40:56;94267.72;;;11.86;54.53
7335;BME280;3708;42.632;23.378;2023-04-23T02:43:23;94261.78;;;11.77;54.07
7335;BME280;3708;42.632;23.378;2023-04-23T02:45:50;94265.28;;;11.69;54.44
7335;BME280;3708;42.632;23.378;2023-04-23T02:48:18;94273.16;;;11.69;54.17
7335;BME280;3708;42.632;23.378;2023-04-23T02:50:46;94269.16;;;11.30;54.77
7335;BME280;3708;42.632;23.378;2023-04-23T02:53:13;94268.78;;;11.52;54.80
7335;BME280;3708;42.632;23.378;2023-04-23T02:55:40;94271.50;;;11.76;54.59
7335;BME280;3708;42.632;23.378;2023-04-23T02:58:07;94280.63;;;11.91;54.41
7335;BME280;3708;42.632;23.378;2023-04-23T03:00:34;94272.88;;;11.94;53.87
7335;BME280;3708;42.632;23.378;2023-04-23T03:03:01;94277.06;;;12.07;53.66
7335;BME280;3708;42.632;23.378;2023-04-23T03:05:29;94285.38;;;12.09;53.46
7335;BME280;3708;42.632;23.378;2023-04-23T03:07:56;94278.22;;;11.98;52.89
7335;BME280;3708;42.632;23.378;2023-04-23T03:10:23;94278.66;;;11.88;53.13
7335;BME280;3708;42.632;23.378;2023-04-23T03:12:50;94293.47;;;11.72;53.45
7335;BME280;3708;42.632;23.378;2023-04-23T03:15:17;94284.75;;;11.47;54.26
7335;BME280;3708;42.632;23.378;2023-04-23T03:17:44;94282.84;;;11.15;54.92
7335;BME280;3708;42.632;23.378;2023-04-23T03:20:11;94285.66;;;11.10;55.04
7335;BME280;3708;42.632;23.378;2023-04-23T03:22:39;94284.81;;;10.77;55.91
7335;BME280;3708;42.632;23.378;2023-04-23T03:25:06;94286.75;;;10.59;56.84
7335;BME280;3708;42.632;23.378;2023-04-23T03:27:34;94286.81;;;10.50;57.31
7335;BME280;3708;42.632;23.378;2023-04-23T03:30:00;94288.44;;;10.34;57.92
7335;BME280;3708;42.632;23.378;2023-04-23T03:32:27;94294.16;;;10.28;58.46
7335;BME280;3708;42.632;23.378;2023-04-23T03:34:54;94290.19;;;10.51;57.94
7335;BME280;3708;42.632;23.378;2023-04-23T03:37:21;94291.78;;;10.43;58.05
7335;BME280;3708;42.632;23.378;2023-04-23T03:39:49;94295.31;;;10.47;58.02
7335;BME280;3708;42.632;23.378;2023-04-23T03:42:16;94300.28;;;10.61;57.93
7335;BME280;3708;42.632;23.378;2023-04-23T03:44:43;94300.66;;;10.80;57.56
7335;BME280;3708;42.632;23.378;2023-04-23T03:47:10;94289.19;;;10.64;57.43
7335;BME280;3708;42.632;23.378;2023-04-23T03:49:38;94294.22;;;10.78;57.25
7335;BME280;3708;42.632;23.378;2023-04-23T03:52:05;94295.78;;;10.70;57.26
7335;BME280;3708;42.632;23.378;2023-04-23T03:54:31;94299.00;;;10.76;57.15
7335;BME280;3708;42.632;23.378;2023-04-23T03:57:00;94306.09;;;10.75;57.14
7335;BME280;3708;42.632;23.378;2023-04-23T03:59:27;94311.50;;;10.70;57.49
7335;BME280;3708;42.632;23.378;2023-04-23T04:01:53;94311.81;;;10.68;57.37
7335;BME280;3708;42.632;23.378;2023-04-23T04:04:20;94316.25;;;10.47;58.16
7335;BME280;3708;42.632;23.378;2023-04-23T04:06:47;94312.13;;;10.38;58.66
7335;BME280;3708;42.632;23.378;2023-04-23T04:09:14;94311.59;;;10.53;58.53
7335;BME280;3708;42.632;23.378;2023-04-23T04:11:41;94308.53;;;10.51;58.63
7335;BME280;3708;42.632;23.378;2023-04-23T04:14:09;94310.25;;;10.47;58.65
7335;BME280;3708;42.632;23.378;2023-04-23T04:16:36;94309.75;;;10.53;58.24
7335;BME280;3708;42.632;23.378;2023-04-23T04:19:03;94312.66;;;10.60;58.46
7335;BME280;3708;42.632;23.378;2023-04-23T04:21:30;94317.03;;;10.48;58.83
7335;BME280;3708;42.632;23.378;2023-04-23T04:23:58;94312.91;;;10.38;59.20
7335;BME280;3708;42.632;23.378;2023-04-23T04:26:26;94310.16;;;10.64;59.14
7335;BME280;3708;42.632;23.378;2023-04-23T04:28:52;94313.50;;;10.73;58.92
7335;BME280;3708;42.632;23.378;2023-04-23T04:31:21;94321.84;;;10.66;58.77
7335;BME280;3708;42.632;23.378;2023-04-23T04:33:48;94318.63;;;10.61;59.09
7335;BME280;3708;42.632;23.378;2023-04-23T04:36:15;94317.84;;;10.90;58.65
7335;BME280;3708;42.632;23.378;2023-04-23T04:38:42;94322.47;;;11.13;58.51
7335;BME280;3708;42.632;23.378;2023-04-23T04:41:09;94325.47;;;11.24;58.14
7335;BME280;3708;42.632;23.378;2023-04-23T04:43:36;94325.41;;;11.32;57.96
7335;BME280;3708;42.632;23.378;2023-04-23T04:46:03;94332.53;;;11.11;58.03
7335;BME280;3708;42.632;23.378;2023-04-23T04:48:31;94328.22;;;11.07;58.11
7335;BME280;3708;42.632;23.378;2023-04-23T04:50:58;94333.97;;;11.00;58.12
7335;BME280;3708;42.632;23.378;2023-04-23T04:53:25;94340.75;;;11.22;57.92
7335;BME280;3708;42.632;23.378;2023-04-23T04:55:52;94332.59;;;11.44;57.36
7335;BME280;3708;42.632;23.378;2023-04-23T04:58:19;94330.03;;;11.35;57.53
7335;BME280;3708;42.632;23.378;2023-04-23T05:00:46;94333.03;;;11.46;57.35
7335;BME280;3708;42.632;23.378;2023-04-23T05:03:16;94332.34;;;11.16;57.98
7335;BME280;3708;42.632;23.378;2023-04-23T05:05:44;94334.38;;;11.31;57.93
7335;BME280;3708;42.632;23.378;2023-04-23T05:08:13;94330.53;;;11.49;57.48
7335;BME280;3708;42.632;23.378;2023-04-23T05:10:41;94330.66;;;11.74;57.11
7335;BME280;3708;42.632;23.378;2023-04-23T05:13:08;94330.97;;;12.05;57.05
7335;BME280;3708;42.632;23.378;2023-04-23T05:15:35;94337.03;;;12.30;56.46
7335;BME280;3708;42.632;23.378;2023-04-23T05:18:03;94336.19;;;12.38;56.07
7335;BME280;3708;42.632;23.378;2023-04-23T05:20:31;94333.34;;;12.55;55.75
7335;BME280;3708;42.632;23.378;2023-04-23T05:22:59;94346.59;;;12.58;55.61
7335;BME280;3708;42.632;23.378;2023-04-23T05:25:27;94331.47;;;12.55;55.83
7335;BME280;3708;42.632;23.378;2023-04-23T05:27:54;94326.44;;;12.86;55.22
7335;BME280;3708;42.632;23.378;2023-04-23T05:30:21;94327.31;;;12.78;55.06
7335;BME280;3708;42.632;23.378;2023-04-23T05:32:48;94333.88;;;12.84;54.82
7335;BME280;3708;42.632;23.378;2023-04-23T05:35:15;94335.19;;;12.54;55.38
7335;BME280;3708;42.632;23.378;2023-04-23T05:37:42;94347.22;;;12.43;55.37
7335;BME280;3708;42.632;23.378;2023-04-23T05:40:10;94332.44;;;12.27;56.29
7335;BME280;3708;42.632;23.378;2023-04-23T05:42:37;94351.50;;;12.48;56.19
7335;BME280;3708;42.632;23.378;2023-04-23T05:45:05;94339.13;;;12.84;55.38
7335;BME280;3708;42.632;23.378;2023-04-23T05:47:33;94343.94;;;12.94;55.49
7335;BME280;3708;42.632;23.378;2023-04-23T05:49:59;94344.94;;;13.14;55.15
7335;BME280;3708;42.632;23.378;2023-04-23T05:52:27;94346.97;;;13.33;54.94
7335;BME280;3708;42.632;23.378;2023-04-23T05:54:55;94356.78;;;13.60;54.30
7335;BME280;3708;42.632;23.378;2023-04-23T05:57:25;94347.63;;;13.69;53.69
7335;BME280;3708;42.632;23.378;2023-04-23T05:59:52;94343.41;;;13.65;53.73
7335;BME280;3708;42.632;23.378;2023-04-23T06:02:19;94345.69;;;13.94;53.26
7335;BME280;3708;42.632;23.378;2023-04-23T06:04:45;94351.59;;;13.91;53.20
7335;BME280;3708;42.632;23.378;2023-04-23T06:07:12;94343.28;;;13.89;53.23
7335;BME280;3708;42.632;23.378;2023-04-23T06:09:39;94349.69;;;14.31;52.90
7335;BME280;3708;42.632;23.378;2023-04-23T06:12:06;94342.22;;;14.49;51.92
7335;BME280;3708;42.632;23.378;2023-04-23T06:14:35;94338.78;;;14.80;51.53
7335;BME280;3708;42.632;23.378;2023-04-23T06:17:01;94352.66;;;14.02;52.60
7335;BME280;3708;42.632;23.378;2023-04-23T06:19:28;94352.50;;;13.95;52.89
7335;BME280;3708;42.632;23.378;2023-04-23T06:21:55;94344.72;;;14.14;53.05
7335;BME280;3708;42.632;23.378;2023-04-23T06:24:22;94351.28;;;14.67;52.25
7335;BME280;3708;42.632;23.378;2023-04-23T06:26:49;94343.69;;;14.97;51.74
7335;BME280;3708;42.632;23.378;2023-04-23T06:29:16;94342.47;;;15.10;50.90
7335;BME280;3708;42.632;23.378;2023-04-23T06:31:44;94342.00;;;15.04;50.33
7335;BME280;3708;42.632;23.378;2023-04-23T06:34:11;94343.03;;;15.00;50.96
7335;BME280;3708;42.632;23.378;2023-04-23T06:36:37;94348.34;;;15.19;50.69
7335;BME280;3708;42.632;23.378;2023-04-23T06:39:04;94346.06;;;15.02;50.76
7335;BME280;3708;42.632;23.378;2023-04-23T06:41:31;94345.53;;;14.46;52.03
7335;BME280;3708;42.632;23.378;2023-04-23T06:43:58;94351.66;;;14.81;51.71
7335;BME280;3708;42.632;23.378;2023-04-23T06:46:24;94336.69;;;15.20;51.03
7335;BME280;3708;42.632;23.378;2023-04-23T06:48:53;94344.88;;;15.34;50.51
7335;BME280;3708;42.632;23.378;2023-04-23T06:51:20;94344.16;;;15.53;50.18
7335;BME280;3708;42.632;23.378;2023-04-23T06:53:47;94333.91;;;15.67;49.96
7335;BME280;3708;42.632;23.378;2023-04-23T06:56:13;94336.47;;;15.63;49.70
7335;BME280;3708;42.632;23.378;2023-04-23T06:58:40;94342.88;;;15.62;50.00
7335;BME280;3708;42.632;23.378;2023-04-23T07:01:07;94339.75;;;15.57;50.17
7335;BME280;3708;42.632;23.378;2023-04-23T07:03:35;94344.06;;;15.65;49.95
7335;BME280;3708;42.632;23.378;2023-04-23T07:06:04;94336.75;;;15.58;50.62
7335;BME280;3708;42.632;23.378;2023-04-23T07:08:31;94335.16;;;15.73;50.36
7335;BME280;3708;42.632;23.378;2023-04-23T07:10:58;94341.13;;;15.70;50.27
7335;BME280;3708;42.632;23.378;2023-04-23T07:13:25;94342.72;;;15.93;49.34
7335;BME280;3708;42.632;23.378;2023-04-23T07:15:51;94344.00;;;15.80;50.07
7335;BME280;3708;42.632;23.378;2023-04-23T07:18:18;94337.19;;;16.21;49.77
7335;BME280;3708;42.632;23.378;2023-04-23T07:20:45;94334.50;;;16.40;48.71
7335;BME280;3708;42.632;23.378;2023-04-23T07:23:13;94333.09;;;16.46;48.40
7335;BME280;3708;42.632;23.378;2023-04-23T07:25:40;94335.69;;;16.65;47.70
7335;BME280;3708;42.632;23.378;2023-04-23T07:28:07;94333.03;;;16.88;47.13
7335;BME280;3708;42.632;23.378;2023-04-23T07:30:34;94330.13;;;16.97;46.95
7335;BME280;3708;42.632;23.378;2023-04-23T07:33:01;94331.34;;;17.03;47.20
7335;BME280;3708;42.632;23.378;2023-04-23T07:35:27;94333.59;;;17.53;47.11
7335;BME280;3708;42.632;23.378;2023-04-23T07:37:54;94335.13;;;17.87;45.52
7335;BME280;3708;42.632;23.378;2023-04-23T07:40:23;94331.19;;;17.44;45.67
7335;BME280;3708;42.632;23.378;2023-04-23T07:42:50;94336.13;;;18.09;44.29
7335;BME280;3708;42.632;23.378;2023-04-23T07:45:18;94340.44;;;17.87;44.17
7335;BME280;3708;42.632;23.378;2023-04-23T07:47:46;94335.06;;;17.84;44.31
7335;BME280;3708;42.632;23.378;2023-04-23T07:50:13;94340.38;;;17.84;44.45
7335;BME280;3708;42.632;23.378;2023-04-23T07:52:40;94343.03;;;18.17;43.07
7335;BME280;3708;42.632;23.378;2023-04-23T07:55:08;94342.00;;;17.92;43.43
7335;BME280;3708;42.632;23.378;2023-04-23T07:57:36;94339.53;;;17.76;44.13
7335;BME280;3708;42.632;23.378;2023-04-23T08:00:04;94335.06;;;17.84;44.16
7335;BME280;3708;42.632;23.378;2023-04-23T08:02:33;94327.34;;;17.68;44.89
7335;BME280;3708;42.632;23.378;2023-04-23T08:05:00;94334.00;;;17.88;45.33
7335;BME280;3708;42.632;23.378;2023-04-23T08:07:27;94330.16;;;18.19;43.78
7335;BME280;3708;42.632;23.378;2023-04-23T08:09:54;94342.56;;;18.11;43.03
7335;BME280;3708;42.632;23.378;2023-04-23T08:12:27;94334.06;;;18.28;43.20
7335;BME280;3708;42.632;23.378;2023-04-23T08:14:56;94335.38;;;18.45;43.54
7335;BME280;3708;42.632;23.378;2023-04-23T08:17:23;94339.84;;;18.85;42.84
7335;BME280;3708;42.632;23.378;2023-04-23T08:19:50;94334.44;;;18.67;42.19
7335;BME280;3708;42.632;23.378;2023-04-23T08:22:16;94340.25;;;18.87;41.85
7335;BME280;3708;42.632;23.378;2023-04-23T08:24:44;94329.63;;;19.38;40.78
7335;BME280;3708;42.632;23.378;2023-04-23T08:27:11;94328.00;;;18.72;41.66
7335;BME280;3708;42.632;23.378;2023-04-23T08:29:38;94335.13;;;18.61;41.59
7335;BME280;3708;42.632;23.378;2023-04-23T08:32:06;94330.84;;;18.93;40.82
7335;BME280;3708;42.632;23.378;2023-04-23T08:34:33;94318.34;;;18.97;40.90
7335;BME280;3708;42.632;23.378;2023-04-23T08:37:00;94315.66;;;18.93;40.99
7335;BME280;3708;42.632;23.378;2023-04-23T08:39:27;94310.13;;;19.16;41.44
7335;BME280;3708;42.632;23.378;2023-04-23T08:41:57;94320.63;;;18.95;41.41
7335;BME280;3708;42.632;23.378;2023-04-23T08:44:27;94319.84;;;18.47;42.28
7335;BME280;3708;42.632;23.378;2023-04-23T08:47:03;94306.38;;;18.70;41.70
7335;BME280;3708;42.632;23.378;2023-04-23T08:49:33;94307.13;;;19.25;40.80
7335;BME280;3708;42.632;23.378;2023-04-23T08:52:05;94302.94;;;19.20;40.50
7335;BME280;3708;42.632;23.378;2023-04-23T08:54:36;94309.72;;;19.11;40.62
7335;BME280;3708;42.632;23.378;2023-04-23T08:57:07;94294.47;;;19.65;39.48
7335;BME280;3708;42.632;23.378;2023-04-23T08:59:35;94297.25;;;20.11;38.66
7335;BME280;3708;42.632;23.378;2023-04-23T09:02:03;94302.66;;;20.32;37.96
7335;BME280;3708;42.632;23.378;2023-04-23T09:04:36;94310.75;;;19.57;38.92
7335;BME280;3708;42.632;23.378;2023-04-23T09:07:03;94305.78;;;19.52;39.74
7335;BME280;3708;42.632;23.378;2023-04-23T09:09:31;94301.28;;;19.56;39.84
7335;BME280;3708;42.632;23.378;2023-04-23T09:11:59;94284.31;;;20.06;38.92
7335;BME280;3708;42.632;23.378;2023-04-23T09:14:26;94296.56;;;20.39;38.38
7335;BME280;3708;42.632;23.378;2023-04-23T09:16:52;94296.59;;;20.67;37.19
7335;BME280;3708;42.632;23.378;2023-04-23T09:19:19;94295.81;;;20.45;37.53
7335;BME280;3708;42.632;23.378;2023-04-23T09:21:48;94289.34;;;20.89;37.39
7335;BME280;3708;42.632;23.378;2023-04-23T09:24:15;94293.16;;;20.84;36.60
7335;BME280;3708;42.632;23.378;2023-04-23T09:26:46;94291.25;;;21.06;35.72
7335;BME280;3708;42.632;23.378;2023-04-23T09:29:14;94286.28;;;21.01;36.01
7335;BME280;3708;42.632;23.378;2023-04-23T09:31:43;94290.50;;;20.91;35.99
7335;BME280;3708;42.632;23.378;2023-04-23T09:34:14;94287.28;;;19.80;37.53
7335;BME280;3708;42.632;23.378;2023-04-23T09:36:42;94281.75;;;20.52;36.60
7335;BME280;3708;42.632;23.378;2023-04-23T09:39:12;94280.59;;;20.81;36.49
7335;BME280;3708;42.632;23.378;2023-04-23T09:41:39;94274.53;;;20.60;36.35
7335;BME280;3708;42.632;23.378;2023-04-23T09:44:06;94268.06;;;20.61;36.14
7335;BME280;3708;42.632;23.378;2023-04-23T09:46:35;94266.16;;;20.68;36.56
7335;BME280;3708;42.632;23.378;2023-04-23T09:49:03;94262.72;;;21.06;35.84
7335;BME280;3708;42.632;23.378;2023-04-23T09:51:32;94258.31;;;21.76;34.86
7335;BME280;3708;42.632;23.378;2023-04-23T09:54:01;94263.09;;;21.05;35.54
7335;BME280;3708;42.632;23.378;2023-04-23T09:56:30;94263.75;;;21.51;34.83
7335;BME280;3708;42.632;23.378;2023-04-23T09:58:57;94265.94;;;21.70;33.86
7335;BME280;3708;42.632;23.378;2023-04-23T10:01:27;94259.75;;;21.94;32.57
7335;BME280;3708;42.632;23.378;2023-04-23T10:03:55;94258.34;;;22.38;31.91
7335;BME280;3708;42.632;23.378;2023-04-23T10:06:27;94257.66;;;22.27;31.91
7335;BME280;3708;42.632;23.378;2023-04-23T10:08:57;94253.72;;;22.42;32.00
7335;BME280;3708;42.632;23.378;2023-04-23T10:11:24;94245.53;;;21.32;33.30
7335;BME280;3708;42.632;23.378;2023-04-23T10:13:52;94247.75;;;21.51;33.37
7335;BME280;3708;42.632;23.378;2023-04-23T10:16:21;94230.00;;;21.02;33.54
7335;BME280;3708;42.632;23.378;2023-04-23T10:18:49;94243.47;;;21.68;33.44
7335;BME280;3708;42.632;23.378;2023-04-23T10:21:17;94234.41;;;22.27;33.77
7335;BME280;3708;42.632;23.378;2023-04-23T10:23:46;94234.78;;;22.77;32.03
7335;BME280;3708;42.632;23.378;2023-04-23T10:26:14;94225.81;;;23.31;31.55
7335;BME280;3708;42.632;23.378;2023-04-23T10:28:46;94224.88;;;23.48;29.46
7335;BME280;3708;42.632;23.378;2023-04-23T10:31:16;94222.38;;;23.34;30.07
7335;BME280;3708;42.632;23.378;2023-04-23T10:33:46;94209.13;;;23.58;28.54
7335;BME280;3708;42.632;23.378;2023-04-23T10:36:14;94214.47;;;23.24;29.84
7335;BME280;3708;42.632;23.378;2023-04-23T10:38:42;94212.88;;;23.90;29.99
7335;BME280;3708;42.632;23.378;2023-04-23T10:41:12;94219.59;;;24.05;28.63
7335;BME280;3708;42.632;23.378;2023-04-23T10:43:42;94207.50;;;24.20;28.11
7335;BME280;3708;42.632;23.378;2023-04-23T10:46:28;94209.50;;;24.16;28.22
7335;BME280;3708;42.632;23.378;2023-04-23T10:49:06;94210.13;;;23.00;27.75
7335;BME280;3708;42.632;23.378;2023-04-23T10:51:34;94207.31;;;22.77;28.71
7335;BME280;3708;42.632;23.378;2023-04-23T10:54:02;94197.91;;;23.70;29.75
7335;BME280;3708;42.632;23.378;2023-04-23T10:56:29;94194.91;;;24.21;28.64
7335;BME280;3708;42.632;23.378;2023-04-23T10:58:56;94192.69;;;24.39;28.11
7335;BME280;3708;42.632;23.378;2023-04-23T11:01:24;94186.69;;;25.01;28.29
7335;BME280;3708;42.632;23.378;2023-04-23T11:03:52;94180.56;;;25.59;26.73
7335;BME280;3708;42.632;23.378;2023-04-23T11:06:55;94185.31;;;26.23;26.23
7335;BME280;3708;42.632;23.378;2023-04-23T11:09:35;94187.16;;;26.59;24.67
7335;BME280;3708;42.632;23.378;2023-04-23T11:12:05;94185.81;;;26.51;25.64
7335;BME280;3708;42.632;23.378;2023-04-23T11:14:34;94188.81;;;26.53;25.66
7335;BME280;3708;42.632;23.378;2023-04-23T11:17:02;94187.72;;;25.66;26.39
7335;BME280;3708;42.632;23.378;2023-04-23T11:19:30;94180.47;;;25.47;26.92
7335;BME280;3708;42.632;23.378;2023-04-23T11:22:01;94171.16;;;26.03;25.77
7335;BME280;3708;42.632;23.378;2023-04-23T11:24:31;94169.81;;;25.79;25.74
7335;BME280;3708;42.632;23.378;2023-04-23T11:26:59;94168.59;;;25.64;26.26
7335;BME280;3708;42.632;23.378;2023-04-23T11:29:27;94163.16;;;26.19;25.17
7335;BME280;3708;42.632;23.378;2023-04-23T11:31:55;94162.03;;;26.65;24.71
7335;BME280;3708;42.632;23.378;2023-04-23T11:34:22;94164.25;;;26.54;24.95
7335;BME280;3708;42.632;23.378;2023-04-23T11:36:54;94154.56;;;26.73;23.92
7335;BME280;3708;42.632;23.378;2023-04-23T11:39:24;94149.53;;;26.75;23.24
7335;BME280;3708;42.632;23.378;2023-04-23T11:41:51;94150.16;;;26.95;22.12
7335;BME280;3708;42.632;23.378;2023-04-23T11:44:18;94145.38;;;26.09;21.70
7335;BME280;3708;42.632;23.378;2023-04-23T11:46:46;94146.00;;;25.81;22.93
7335;BME280;3708;42.632;23.378;2023-04-23T11:49:14;94144.66;;;26.70;23.30
7335;BME280;3708;42.632;23.378;2023-04-23T11:51:42;94147.66;;;27.16;21.57
7335;BME280;3708;42.632;23.378;2023-04-23T11:54:11;94136.47;;;26.89;21.35
7335;BME280;3708;42.632;23.378;2023-04-23T11:56:39;94126.78;;;27.62;20.11
7335;BME280;3708;42.632;23.378;2023-04-23T11:59:07;94130.56;;;27.89;20.84
7335;BME280;3708;42.632;23.378;2023-04-23T12:01:44;94122.34;;;28.31;20.44
7335;BME280;3708;42.632;23.378;2023-04-23T12:04:13;94118.81;;;28.21;20.55
7335;BME280;3708;42.632;23.378;2023-04-23T12:06:42;94122.19;;;28.00;20.03
7335;BME280;3708;42.632;23.378;2023-04-23T12:09:12;94122.69;;;27.57;19.57
7335;BME280;3708;42.632;23.378;2023-04-23T12:11:40;94115.16;;;27.65;20.01
7335;BME280;3708;42.632;23.378;2023-04-23T12:14:08;94121.72;;;27.76;19.90
7335;BME280;3708;42.632;23.378;2023-04-23T12:16:37;94116.03;;;27.62;20.03
7335;BME280;3708;42.632;23.378;2023-04-23T12:19:06;94112.97;;;28.35;19.40
7335;BME280;3708;42.632;23.378;2023-04-23T12:21:33;94109.25;;;28.67;20.69
7335;BME280;3708;42.632;23.378;2023-04-23T12:24:02;94118.44;;;28.57;20.19
7335;BME280;3708;42.632;23.378;2023-04-23T12:26:31;94115.31;;;28.46;20.46
7335;BME280;3708;42.632;23.378;2023-04-23T12:29:01;94106.47;;;28.45;20.75
7335;BME280;3708;42.632;23.378;2023-04-23T12:31:28;94102.78;;;28.64;19.84
7335;BME280;3708;42.632;23.378;2023-04-23T12:34:02;94101.91;;;28.21;19.34
7335;BME280;3708;42.632;23.378;2023-04-23T12:36:29;94101.59;;;27.93;19.97
7335;BME280;3708;42.632;23.378;2023-04-23T12:39:22;94106.69;;;27.25;19.89
7335;BME280;3708;42.632;23.378;2023-04-23T12:41:52;94102.22;;;26.48;20.33
7335;BME280;3708;42.632;23.378;2023-04-23T12:44:19;94105.47;;;26.11;20.66
7335;BME280;3708;42.632;23.378;2023-04-23T12:46:49;94096.19;;;25.80;21.28
7335;BME280;3708;42.632;23.378;2023-04-23T12:49:19;94100.53;;;25.74;21.20
7335;BME280;3708;42.632;23.378;2023-04-23T12:51:46;94095.59;;;25.37;21.90
7335;BME280;3708;42.632;23.378;2023-04-23T12:54:13;94094.00;;;25.39;21.91
7335;BME280;3708;42.632;23.378;2023-04-23T12:56:40;94093.94;;;25.23;21.68
7335;BME280;3708;42.632;23.378;2023-04-23T12:59:08;94087.88;;;24.83;21.77
7335;BME280;3708;42.632;23.378;2023-04-23T13:01:35;94098.44;;;24.28;22.54
7335;BME280;3708;42.632;23.378;2023-04-23T13:04:02;94095.97;;;23.64;22.87
7335;BME280;3708;42.632;23.378;2023-04-23T13:06:29;94099.31;;;23.72;23.25
7335;BME280;3708;42.632;23.378;2023-04-23T13:08:56;94096.63;;;23.72;23.49
7335;BME280;3708;42.632;23.378;2023-04-23T13:11:25;94089.84;;;23.64;23.80
7335;BME280;3708;42.632;23.378;2023-04-23T13:13:51;94096.69;;;23.41;23.53
7335;BME280;3708;42.632;23.378;2023-04-23T13:16:20;94088.72;;;23.88;23.20
7335;BME280;3708;42.632;23.378;2023-04-23T13:18:46;94086.66;;;23.99;22.94